sensor_id;sensor_type;location;lat;lon;timestamp;P1;durP1;ratioP1;P2;durP2;ratioP2
5730;SDS011;2890;51.950;7.668;2022-08-07T00:01:54;4.18;;;2.10;;
5730;SDS011;2890;51.950;7.668;2022-08-07T00:04:21;2.42;;;2.22;;
5730;SDS011;2890;51.950;7.668;2022-08-07T00:06:47;3.53;;;2.38;;
5730;SDS011;2890;51.950;7.668;2022-08-07T00:09:14;5.78;;;2.30;;
5730;SDS011;2890;51.950;7.668;2022-08-07T00:11:41;5.03;;;2.10;;
5730;SDS011;2890;51.950;7.668;2022-08-07T00:14:08;3.15;;;2.50;;
5730;SDS011;2890;51.950;7.668;2022-08-07T00:16:34;3.80;;;2.65;;
5730;SDS011;2890;51.950;7.668;2022-08-07T00:19:02;3.17;;;2.47;;
5730;SDS011;2890;51.950;7.668;2022-08-07T00:21:30;3.95;;;2.80;;
5730;SDS011;2890;51.950;7.668;2022-08-07T00:23:56;2.80;;;2.55;;
5730;SDS011;2890;51.950;7.668;2022-08-07T00:26:23;3.88;;;2.33;;
5730;SDS011;2890;51.950;7.668;2022-08-07T00:28:50;4.50;;;3.10;;
5730;SDS011;2890;51.950;7.668;2022-08-07T00:31:16;6.28;;;2.60;;
5730;SDS011;2890;51.950;7.668;2022-08-07T00:33:43;2.85;;;2.60;;
5730;SDS011;2890;51.950;7.668;2022-08-07T00:36:12;3.03;;;2.47;;
5730;SDS011;2890;51.950;7.668;2022-08-07T00:38:38;3.72;;;2.55;;
5730;SDS011;2890;51.950;7.668;2022-08-07T00:41:05;4.28;;;2.97;;
5730;SDS011;2890;51.950;7.668;2022-08-07T00:43:32;2.78;;;2.58;;
5730;SDS011;2890;51.950;7.668;2022-08-07T00:45:59;5.65;;;2.85;;
5730;SDS011;2890;51.950;7.668;2022-08-07T00:48:27;2.38;;;2.17;;
5730;SDS011;2890;51.950;7.668;2022-08-07T00:50:54;2.90;;;2.58;;
5730;SDS011;2890;51.950;7.668;2022-08-07T00:53:22;4.80;;;2.63;;
5730;SDS011;2890;51.950;7.668;2022-08-07T00:55:49;2.83;;;2.30;;
5730;SDS011;2890;51.950;7.668;2022-08-07T00:58:17;2.88;;;2.45;;
5730;SDS011;2890;51.950;7.668;2022-08-07T01:00:45;3.90;;;2.92;;
5730;SDS011;2890;51.950;7.668;2022-08-07T01:03:12;2.70;;;2.42;;
5730;SDS011;2890;51.950;7.668;2022-08-07T01:05:39;3.72;;;2.83;;
5730;SDS011;2890;51.950;7.668;2022-08-07T01:08:07;2.90;;;2.60;;
5730;SDS011;2890;51.950;7.668;2022-08-07T01:10:35;2.40;;;2.20;;
5730;SDS011;2890;51.950;7.668;2022-08-07T01:13:03;3.47;;;2.40;;
5730;SDS011;2890;51.950;7.668;2022-08-07T01:15:30;3.22;;;2.90;;
5730;SDS011;2890;51.950;7.668;2022-08-07T01:17:59;5.78;;;2.50;;
5730;SDS011;2890;51.950;7.668;2022-08-07T01:20:30;4.03;;;2.75;;
5730;SDS011;2890;51.950;7.668;2022-08-07T01:23:00;5.45;;;3.22;;
5730;SDS011;2890;51.950;7.668;2022-08-07T01:25:29;2.90;;;2.70;;
5730;SDS011;2890;51.950;7.668;2022-08-07T01:27:56;4.75;;;2.67;;
5730;SDS011;2890;51.950;7.668;2022-08-07T01:30:23;7.30;;;2.80;;
5730;SDS011;2890;51.950;7.668;2022-08-07T01:32:51;3.95;;;2.83;;
5730;SDS011;2890;51.950;7.668;2022-08-07T01:35:18;4.93;;;2.38;;
5730;SDS011;2890;51.950;7.668;2022-08-07T01:37:45;2.97;;;2.47;;
5730;SDS011;2890;51.950;7.668;2022-08-07T01:40:14;3.05;;;2.72;;
5730;SDS011;2890;51.950;7.668;2022-08-07T01:42:44;3.35;;;3.05;;
5730;SDS011;2890;51.950;7.668;2022-08-07T01:45:11;3.63;;;2.63;;
5730;SDS011;2890;51.950;7.668;2022-08-07T01:47:38;4.40;;;2.92;;
5730;SDS011;2890;51.950;7.668;2022-08-07T01:50:05;3.10;;;2.70;;
5730;SDS011;2890;51.950;7.668;2022-08-07T01:52:32;4.65;;;2.53;;
5730;SDS011;2890;51.950;7.668;2022-08-07T01:55:02;2.63;;;2.30;;
5730;SDS011;2890;51.950;7.668;2022-08-07T01:57:31;3.60;;;2.70;;
5730;SDS011;2890;51.950;7.668;2022-08-07T02:00:03;4.90;;;3.25;;
5730;SDS011;2890;51.950;7.668;2022-08-07T02:02:32;2.70;;;2.45;;
5730;SDS011;2890;51.950;7.668;2022-08-07T02:05:09;3.92;;;3.00;;
5730;SDS011;2890;51.950;7.668;2022-08-07T02:07:40;5.47;;;3.85;;
5730;SDS011;2890;51.950;7.668;2022-08-07T02:10:11;4.88;;;3.17;;
5730;SDS011;2890;51.950;7.668;2022-08-07T02:12:41;4.03;;;2.97;;
5730;SDS011;2890;51.950;7.668;2022-08-07T02:15:10;5.68;;;3.00;;
5730;SDS011;2890;51.950;7.668;2022-08-07T02:17:40;3.50;;;2.90;;
5730;SDS011;2890;51.950;7.668;2022-08-07T02:20:09;2.97;;;2.63;;
5730;SDS011;2890;51.950;7.668;2022-08-07T02:22:37;3.65;;;2.88;;
5730;SDS011;2890;51.950;7.668;2022-08-07T02:25:07;3.58;;;2.50;;
5730;SDS011;2890;51.950;7.668;2022-08-07T02:27:35;4.75;;;3.08;;
5730;SDS011;2890;51.950;7.668;2022-08-07T02:30:06;3.30;;;2.78;;
5730;SDS011;2890;51.950;7.668;2022-08-07T02:32:33;3.58;;;2.47;;
5730;SDS011;2890;51.950;7.668;2022-08-07T02:35:02;6.03;;;2.72;;
5730;SDS011;2890;51.950;7.668;2022-08-07T02:37:30;2.88;;;2.47;;
5730;SDS011;2890;51.950;7.668;2022-08-07T02:39:58;4.32;;;2.90;;
5730;SDS011;2890;51.950;7.668;2022-08-07T02:42:26;3.38;;;2.20;;
5730;SDS011;2890;51.950;7.668;2022-08-07T02:44:54;2.50;;;2.30;;
5730;SDS011;2890;51.950;7.668;2022-08-07T02:47:23;3.13;;;2.28;;
5730;SDS011;2890;51.950;7.668;2022-08-07T02:49:50;5.05;;;2.65;;
5730;SDS011;2890;51.950;7.668;2022-08-07T02:52:18;3.05;;;2.58;;
5730;SDS011;2890;51.950;7.668;2022-08-07T02:54:48;3.80;;;2.88;;
5730;SDS011;2890;51.950;7.668;2022-08-07T02:57:17;4.03;;;3.00;;
5730;SDS011;2890;51.950;7.668;2022-08-07T02:59:45;4.07;;;2.55;;
5730;SDS011;2890;51.950;7.668;2022-08-07T03:02:14;3.40;;;3.10;;
5730;SDS011;2890;51.950;7.668;2022-08-07T03:04:43;2.92;;;2.63;;
5730;SDS011;2890;51.950;7.668;2022-08-07T03:07:11;4.20;;;2.45;;
5730;SDS011;2890;51.950;7.668;2022-08-07T03:09:39;4.00;;;2.80;;
5730;SDS011;2890;51.950;7.668;2022-08-07T03:12:07;4.00;;;2.75;;
5730;SDS011;2890;51.950;7.668;2022-08-07T03:14:35;3.72;;;2.78;;
5730;SDS011;2890;51.950;7.668;2022-08-07T03:17:02;4.10;;;3.03;;
5730;SDS011;2890;51.950;7.668;2022-08-07T03:19:30;2.75;;;2.30;;
5730;SDS011;2890;51.950;7.668;2022-08-07T03:21:59;2.80;;;2.55;;
5730;SDS011;2890;51.950;7.668;2022-08-07T03:24:27;4.10;;;2.70;;
5730;SDS011;2890;51.950;7.668;2022-08-07T03:26:54;5.38;;;2.80;;
5730;SDS011;2890;51.950;7.668;2022-08-07T03:29:25;2.97;;;2.67;;
5730;SDS011;2890;51.950;7.668;2022-08-07T03:31:54;3.53;;;2.80;;
5730;SDS011;2890;51.950;7.668;2022-08-07T03:34:22;4.57;;;2.90;;
5730;SDS011;2890;51.950;7.668;2022-08-07T03:36:51;4.15;;;2.80;;
5730;SDS011;2890;51.950;7.668;2022-08-07T03:39:21;3.53;;;2.90;;
5730;SDS011;2890;51.950;7.668;2022-08-07T03:41:50;2.83;;;2.53;;
5730;SDS011;2890;51.950;7.668;2022-08-07T03:44:17;3.13;;;2.83;;
5730;SDS011;2890;51.950;7.668;2022-08-07T03:46:44;3.05;;;2.63;;
5730;SDS011;2890;51.950;7.668;2022-08-07T03:49:11;4.97;;;2.88;;
5730;SDS011;2890;51.950;7.668;2022-08-07T03:51:38;3.15;;;2.80;;
5730;SDS011;2890;51.950;7.668;2022-08-07T03:54:05;4.53;;;3.20;;
5730;SDS011;2890;51.950;7.668;2022-08-07T03:56:33;4.97;;;2.75;;
5730;SDS011;2890;51.950;7.668;2022-08-07T03:59:02;4.83;;;2.97;;
5730;SDS011;2890;51.950;7.668;2022-08-07T04:01:30;3.40;;;3.10;;
5730;SDS011;2890;51.950;7.668;2022-08-07T04:03:58;5.80;;;3.30;;
5730;SDS011;2890;51.950;7.668;2022-08-07T04:06:25;5.65;;;3.35;;
5730;SDS011;2890;51.950;7.668;2022-08-07T04:08:52;4.38;;;3.17;;
5730;SDS011;2890;51.950;7.668;2022-08-07T04:11:19;3.20;;;2.83;;
5730;SDS011;2890;51.950;7.668;2022-08-07T04:13:48;5.80;;;3.38;;
5730;SDS011;2890;51.950;7.668;2022-08-07T04:16:15;3.90;;;2.90;;
5730;SDS011;2890;51.950;7.668;2022-08-07T04:18:42;4.82;;;3.42;;
5730;SDS011;2890;51.950;7.668;2022-08-07T04:21:09;4.00;;;3.13;;
5730;SDS011;2890;51.950;7.668;2022-08-07T04:23:35;4.43;;;3.38;;
5730;SDS011;2890;51.950;7.668;2022-08-07T04:26:04;3.95;;;3.28;;
5730;SDS011;2890;51.950;7.668;2022-08-07T04:28:32;3.55;;;3.25;;
5730;SDS011;2890;51.950;7.668;2022-08-07T04:31:00;4.35;;;3.17;;
5730;SDS011;2890;51.950;7.668;2022-08-07T04:33:27;4.75;;;3.53;;
5730;SDS011;2890;51.950;7.668;2022-08-07T04:35:55;6.53;;;3.42;;
5730;SDS011;2890;51.950;7.668;2022-08-07T04:38:23;4.75;;;3.72;;
5730;SDS011;2890;51.950;7.668;2022-08-07T04:40:50;7.35;;;3.85;;
5730;SDS011;2890;51.950;7.668;2022-08-07T04:43:18;5.93;;;3.90;;
5730;SDS011;2890;51.950;7.668;2022-08-07T04:45:50;4.00;;;3.60;;
5730;SDS011;2890;51.950;7.668;2022-08-07T04:48:29;4.10;;;3.60;;
5730;SDS011;2890;51.950;7.668;2022-08-07T04:51:03;4.22;;;3.83;;
5730;SDS011;2890;51.950;7.668;2022-08-07T04:53:34;6.28;;;3.60;;
5730;SDS011;2890;51.950;7.668;2022-08-07T04:56:09;4.30;;;3.50;;
5730;SDS011;2890;51.950;7.668;2022-08-07T04:58:45;4.82;;;3.65;;
5730;SDS011;2890;51.950;7.668;2022-08-07T05:01:19;4.15;;;3.83;;
5730;SDS011;2890;51.950;7.668;2022-08-07T05:04:04;6.00;;;3.90;;
5730;SDS011;2890;51.950;7.668;2022-08-07T05:06:35;6.00;;;3.83;;
5730;SDS011;2890;51.950;7.668;2022-08-07T05:09:08;4.57;;;3.70;;
5730;SDS011;2890;51.950;7.668;2022-08-07T05:11:41;6.20;;;4.18;;
5730;SDS011;2890;51.950;7.668;2022-08-07T05:14:13;4.97;;;4.47;;
5730;SDS011;2890;51.950;7.668;2022-08-07T05:16:48;4.10;;;3.65;;
5730;SDS011;2890;51.950;7.668;2022-08-07T05:19:19;4.57;;;3.60;;
5730;SDS011;2890;51.950;7.668;2022-08-07T05:21:53;5.45;;;3.72;;
5730;SDS011;2890;51.950;7.668;2022-08-07T05:24:21;5.32;;;4.00;;
5730;SDS011;2890;51.950;7.668;2022-08-07T05:26:51;8.70;;;3.90;;
5730;SDS011;2890;51.950;7.668;2022-08-07T05:29:20;4.55;;;3.70;;
5730;SDS011;2890;51.950;7.668;2022-08-07T05:31:48;5.68;;;4.03;;
5730;SDS011;2890;51.950;7.668;2022-08-07T05:34:18;5.47;;;3.90;;
5730;SDS011;2890;51.950;7.668;2022-08-07T05:36:47;4.40;;;4.00;;
5730;SDS011;2890;51.950;7.668;2022-08-07T05:39:16;4.93;;;3.47;;
5730;SDS011;2890;51.950;7.668;2022-08-07T05:41:45;5.30;;;3.53;;
5730;SDS011;2890;51.950;7.668;2022-08-07T05:44:13;5.65;;;3.72;;
5730;SDS011;2890;51.950;7.668;2022-08-07T05:46:42;7.97;;;3.88;;
5730;SDS011;2890;51.950;7.668;2022-08-07T05:49:11;4.75;;;4.22;;
5730;SDS011;2890;51.950;7.668;2022-08-07T05:51:39;6.97;;;3.55;;
5730;SDS011;2890;51.950;7.668;2022-08-07T05:54:07;4.80;;;3.65;;
5730;SDS011;2890;51.950;7.668;2022-08-07T05:56:34;4.05;;;3.25;;
5730;SDS011;2890;51.950;7.668;2022-08-07T05:59:02;3.90;;;3.50;;
5730;SDS011;2890;51.950;7.668;2022-08-07T06:01:34;4.25;;;3.70;;
5730;SDS011;2890;51.950;7.668;2022-08-07T06:04:03;4.45;;;3.30;;
5730;SDS011;2890;51.950;7.668;2022-08-07T06:06:31;4.30;;;3.40;;
5730;SDS011;2890;51.950;7.668;2022-08-07T06:09:01;4.93;;;3.53;;
5730;SDS011;2890;51.950;7.668;2022-08-07T06:11:28;4.93;;;3.47;;
5730;SDS011;2890;51.950;7.668;2022-08-07T06:13:55;4.40;;;3.00;;
5730;SDS011;2890;51.950;7.668;2022-08-07T06:16:22;3.38;;;3.08;;
5730;SDS011;2890;51.950;7.668;2022-08-07T06:18:52;7.32;;;3.35;;
5730;SDS011;2890;51.950;7.668;2022-08-07T06:21:19;3.95;;;3.08;;
5730;SDS011;2890;51.950;7.668;2022-08-07T06:23:46;3.70;;;3.03;;
5730;SDS011;2890;51.950;7.668;2022-08-07T06:26:14;3.10;;;2.80;;
5730;SDS011;2890;51.950;7.668;2022-08-07T06:28:47;3.75;;;2.63;;
5730;SDS011;2890;51.950;7.668;2022-08-07T06:31:15;3.85;;;3.00;;
5730;SDS011;2890;51.950;7.668;2022-08-07T06:33:42;6.82;;;2.67;;
5730;SDS011;2890;51.950;7.668;2022-08-07T06:36:09;2.95;;;2.65;;
5730;SDS011;2890;51.950;7.668;2022-08-07T06:38:36;4.00;;;2.72;;
5730;SDS011;2890;51.950;7.668;2022-08-07T06:41:03;3.05;;;2.28;;
5730;SDS011;2890;51.950;7.668;2022-08-07T06:43:34;5.63;;;2.50;;
5730;SDS011;2890;51.950;7.668;2022-08-07T06:46:03;3.45;;;2.30;;
5730;SDS011;2890;51.950;7.668;2022-08-07T06:48:30;5.32;;;2.38;;
5730;SDS011;2890;51.950;7.668;2022-08-07T06:50:57;4.80;;;2.70;;
5730;SDS011;2890;51.950;7.668;2022-08-07T06:53:26;2.60;;;2.40;;
5730;SDS011;2890;51.950;7.668;2022-08-07T06:55:54;2.42;;;2.22;;
5730;SDS011;2890;51.950;7.668;2022-08-07T06:58:22;4.05;;;2.92;;
5730;SDS011;2890;51.950;7.668;2022-08-07T07:00:51;2.92;;;2.33;;
5730;SDS011;2890;51.950;7.668;2022-08-07T07:03:18;5.03;;;2.50;;
5730;SDS011;2890;51.950;7.668;2022-08-07T07:05:45;2.30;;;2.00;;
5730;SDS011;2890;51.950;7.668;2022-08-07T07:08:12;2.17;;;1.98;;
5730;SDS011;2890;51.950;7.668;2022-08-07T07:10:39;3.45;;;2.58;;
5730;SDS011;2890;51.950;7.668;2022-08-07T07:13:06;4.18;;;2.40;;
5730;SDS011;2890;51.950;7.668;2022-08-07T07:15:38;3.88;;;2.35;;
5730;SDS011;2890;51.950;7.668;2022-08-07T07:18:13;4.47;;;2.65;;
5730;SDS011;2890;51.950;7.668;2022-08-07T07:20:46;2.50;;;2.15;;
5730;SDS011;2890;51.950;7.668;2022-08-07T07:23:17;3.08;;;2.47;;
5730;SDS011;2890;51.950;7.668;2022-08-07T07:25:45;2.58;;;2.10;;
5730;SDS011;2890;51.950;7.668;2022-08-07T07:28:17;6.03;;;2.67;;
5730;SDS011;2890;51.950;7.668;2022-08-07T07:30:48;3.17;;;1.80;;
5730;SDS011;2890;51.950;7.668;2022-08-07T07:33:20;3.28;;;1.83;;
5730;SDS011;2890;51.950;7.668;2022-08-07T07:35:51;2.58;;;2.03;;
5730;SDS011;2890;51.950;7.668;2022-08-07T07:38:21;3.95;;;1.65;;
5730;SDS011;2890;51.950;7.668;2022-08-07T07:40:49;3.60;;;2.05;;
5730;SDS011;2890;51.950;7.668;2022-08-07T07:43:19;2.40;;;1.90;;
5730;SDS011;2890;51.950;7.668;2022-08-07T07:45:48;2.13;;;1.80;;
5730;SDS011;2890;51.950;7.668;2022-08-07T07:48:16;3.05;;;2.15;;
5730;SDS011;2890;51.950;7.668;2022-08-07T07:50:47;3.20;;;1.85;;
5730;SDS011;2890;51.950;7.668;2022-08-07T07:53:16;2.30;;;1.70;;
5730;SDS011;2890;51.950;7.668;2022-08-07T07:55:45;1.67;;;1.45;;
5730;SDS011;2890;51.950;7.668;2022-08-07T07:58:12;2.03;;;1.50;;
5730;SDS011;2890;51.950;7.668;2022-08-07T08:00:40;3.42;;;1.70;;
5730;SDS011;2890;51.950;7.668;2022-08-07T08:03:09;2.95;;;1.92;;
5730;SDS011;2890;51.950;7.668;2022-08-07T08:05:40;3.25;;;1.67;;
5730;SDS011;2890;51.950;7.668;2022-08-07T08:08:08;1.67;;;1.55;;
5730;SDS011;2890;51.950;7.668;2022-08-07T08:10:36;2.22;;;1.45;;
5730;SDS011;2890;51.950;7.668;2022-08-07T08:13:04;2.28;;;1.45;;
5730;SDS011;2890;51.950;7.668;2022-08-07T08:15:34;2.72;;;1.60;;
5730;SDS011;2890;51.950;7.668;2022-08-07T08:18:03;1.52;;;1.42;;
5730;SDS011;2890;51.950;7.668;2022-08-07T08:20:34;2.17;;;1.75;;
5730;SDS011;2890;51.950;7.668;2022-08-07T08:23:04;2.95;;;1.80;;
5730;SDS011;2890;51.950;7.668;2022-08-07T08:25:50;2.25;;;1.48;;
5730;SDS011;2890;51.950;7.668;2022-08-07T08:28:48;2.80;;;1.65;;
5730;SDS011;2890;51.950;7.668;2022-08-07T08:31:19;1.13;;;1.10;;
5730;SDS011;2890;51.950;7.668;2022-08-07T08:33:47;1.75;;;1.52;;
5730;SDS011;2890;51.950;7.668;2022-08-07T08:36:17;2.03;;;1.42;;
5730;SDS011;2890;51.950;7.668;2022-08-07T08:38:46;1.58;;;1.40;;
5730;SDS011;2890;51.950;7.668;2022-08-07T08:41:16;1.90;;;1.40;;
5730;SDS011;2890;51.950;7.668;2022-08-07T08:43:49;1.65;;;1.48;;
5730;SDS011;2890;51.950;7.668;2022-08-07T08:46:26;2.28;;;1.27;;
5730;SDS011;2890;51.950;7.668;2022-08-07T08:49:00;1.13;;;1.10;;
5730;SDS011;2890;51.950;7.668;2022-08-07T08:51:34;1.83;;;1.30;;
5730;SDS011;2890;51.950;7.668;2022-08-07T08:54:07;1.63;;;1.17;;
5730;SDS011;2890;51.950;7.668;2022-08-07T08:56:37;0.75;;;0.75;;
5730;SDS011;2890;51.950;7.668;2022-08-07T08:59:08;1.70;;;0.82;;
5730;SDS011;2890;51.950;7.668;2022-08-07T09:01:48;1.00;;;1.00;;
5730;SDS011;2890;51.950;7.668;2022-08-07T09:04:21;2.00;;;1.08;;
5730;SDS011;2890;51.950;7.668;2022-08-07T09:06:56;1.33;;;1.02;;
5730;SDS011;2890;51.950;7.668;2022-08-07T09:09:34;1.88;;;1.10;;
5730;SDS011;2890;51.950;7.668;2022-08-07T09:12:11;2.13;;;1.13;;
5730;SDS011;2890;51.950;7.668;2022-08-07T09:14:49;0.95;;;0.95;;
5730;SDS011;2890;51.950;7.668;2022-08-07T09:17:36;1.70;;;0.85;;
5730;SDS011;2890;51.950;7.668;2022-08-07T09:20:15;1.02;;;0.90;;
5730;SDS011;2890;51.950;7.668;2022-08-07T09:22:53;1.58;;;0.90;;
5730;SDS011;2890;51.950;7.668;2022-08-07T09:25:31;0.77;;;0.77;;
5730;SDS011;2890;51.950;7.668;2022-08-07T09:28:05;0.93;;;0.75;;
5730;SDS011;2890;51.950;7.668;2022-08-07T09:30:43;1.92;;;1.20;;
5730;SDS011;2890;51.950;7.668;2022-08-07T09:33:26;2.08;;;1.10;;
5730;SDS011;2890;51.950;7.668;2022-08-07T09:36:02;3.53;;;2.50;;
5730;SDS011;2890;51.950;7.668;2022-08-07T09:38:35;2.30;;;2.00;;
5730;SDS011;2890;51.950;7.668;2022-08-07T09:41:27;1.55;;;1.00;;
5730;SDS011;2890;51.950;7.668;2022-08-07T09:44:00;0.95;;;0.85;;
5730;SDS011;2890;51.950;7.668;2022-08-07T09:46:37;2.17;;;0.95;;
5730;SDS011;2890;51.950;7.668;2022-08-07T09:49:17;2.28;;;1.42;;
5730;SDS011;2890;51.950;7.668;2022-08-07T09:52:04;1.80;;;0.85;;
5730;SDS011;2890;51.950;7.668;2022-08-07T09:54:43;3.08;;;1.10;;
5730;SDS011;2890;51.950;7.668;2022-08-07T09:57:20;2.13;;;1.83;;
5730;SDS011;2890;51.950;7.668;2022-08-07T10:00:03;1.45;;;1.20;;
5730;SDS011;2890;51.950;7.668;2022-08-07T10:02:55;0.80;;;0.80;;
5730;SDS011;2890;51.950;7.668;2022-08-07T10:05:50;2.30;;;2.10;;
5730;SDS011;2890;51.950;7.668;2022-08-07T10:08:42;1.90;;;0.95;;
5730;SDS011;2890;51.950;7.668;2022-08-07T10:14:37;1.65;;;1.00;;
5730;SDS011;2890;51.950;7.668;2022-08-07T10:17:27;1.13;;;1.02;;
5730;SDS011;2890;51.950;7.668;2022-08-07T10:20:11;1.52;;;1.00;;
5730;SDS011;2890;51.950;7.668;2022-08-07T10:25:38;1.25;;;1.00;;
5730;SDS011;2890;51.950;7.668;2022-08-07T10:28:22;2.00;;;1.00;;
5730;SDS011;2890;51.950;7.668;2022-08-07T10:31:09;1.83;;;1.05;;
5730;SDS011;2890;51.950;7.668;2022-08-07T10:34:00;1.35;;;1.25;;
5730;SDS011;2890;51.950;7.668;2022-08-07T10:36:37;2.03;;;1.83;;
5730;SDS011;2890;51.950;7.668;2022-08-07T10:39:20;1.52;;;1.42;;
5730;SDS011;2890;51.950;7.668;2022-08-07T10:41:56;2.03;;;1.60;;
5730;SDS011;2890;51.950;7.668;2022-08-07T10:44:31;4.72;;;1.20;;
5730;SDS011;2890;51.950;7.668;2022-08-07T10:47:12;1.58;;;1.48;;
5730;SDS011;2890;51.950;7.668;2022-08-07T10:49:46;1.60;;;1.20;;
5730;SDS011;2890;51.950;7.668;2022-08-07T10:52:23;1.30;;;1.13;;
5730;SDS011;2890;51.950;7.668;2022-08-07T10:54:55;1.17;;;1.15;;
5730;SDS011;2890;51.950;7.668;2022-08-07T10:57:30;2.63;;;1.30;;
5730;SDS011;2890;51.950;7.668;2022-08-07T11:00:05;1.40;;;1.30;;
5730;SDS011;2890;51.950;7.668;2022-08-07T11:02:36;1.60;;;1.50;;
5730;SDS011;2890;51.950;7.668;2022-08-07T11:05:13;1.50;;;1.27;;
5730;SDS011;2890;51.950;7.668;2022-08-07T11:07:55;1.52;;;1.30;;
5730;SDS011;2890;51.950;7.668;2022-08-07T11:10:31;1.27;;;1.17;;
5730;SDS011;2890;51.950;7.668;2022-08-07T11:13:08;1.08;;;0.98;;
5730;SDS011;2890;51.950;7.668;2022-08-07T11:15:39;2.38;;;1.60;;
5730;SDS011;2890;51.950;7.668;2022-08-07T11:18:13;1.30;;;1.00;;
5730;SDS011;2890;51.950;7.668;2022-08-07T11:20:45;2.40;;;1.08;;
5730;SDS011;2890;51.950;7.668;2022-08-07T11:23:18;1.58;;;1.00;;
5730;SDS011;2890;51.950;7.668;2022-08-07T11:25:50;0.93;;;0.93;;
5730;SDS011;2890;51.950;7.668;2022-08-07T11:28:24;1.45;;;1.00;;
5730;SDS011;2890;51.950;7.668;2022-08-07T11:30:56;0.93;;;0.80;;
5730;SDS011;2890;51.950;7.668;2022-08-07T11:33:41;1.35;;;0.70;;
5730;SDS011;2890;51.950;7.668;2022-08-07T11:36:15;0.60;;;0.60;;
5730;SDS011;2890;51.950;7.668;2022-08-07T11:38:48;2.45;;;1.05;;
5730;SDS011;2890;51.950;7.668;2022-08-07T11:41:23;0.65;;;0.63;;
5730;SDS011;2890;51.950;7.668;2022-08-07T11:44:00;0.98;;;0.98;;
5730;SDS011;2890;51.950;7.668;2022-08-07T11:46:37;2.78;;;1.15;;
5730;SDS011;2890;51.950;7.668;2022-08-07T11:49:19;1.10;;;1.10;;
5730;SDS011;2890;51.950;7.668;2022-08-07T11:52:03;1.20;;;1.10;;
5730;SDS011;2890;51.950;7.668;2022-08-07T11:54:45;1.30;;;1.20;;
5730;SDS011;2890;51.950;7.668;2022-08-07T11:57:27;1.30;;;1.20;;
5730;SDS011;2890;51.950;7.668;2022-08-07T12:00:03;1.35;;;0.88;;
5730;SDS011;2890;51.950;7.668;2022-08-07T12:05:41;3.03;;;1.10;;
5730;SDS011;2890;51.950;7.668;2022-08-07T12:08:15;0.93;;;0.90;;
5730;SDS011;2890;51.950;7.668;2022-08-07T12:10:46;1.70;;;1.30;;
5730;SDS011;2890;51.950;7.668;2022-08-07T12:13:18;1.20;;;0.80;;
5730;SDS011;2890;51.950;7.668;2022-08-07T12:15:51;0.73;;;0.60;;
5730;SDS011;2890;51.950;7.668;2022-08-07T12:18:21;3.55;;;1.30;;
5730;SDS011;2890;51.950;7.668;2022-08-07T12:20:57;1.85;;;1.05;;
5730;SDS011;2890;51.950;7.668;2022-08-07T12:23:34;1.92;;;1.40;;
5730;SDS011;2890;51.950;7.668;2022-08-07T12:26:10;1.13;;;1.02;;
5730;SDS011;2890;51.950;7.668;2022-08-07T12:28:44;1.10;;;1.00;;
5730;SDS011;2890;51.950;7.668;2022-08-07T12:31:18;1.30;;;1.00;;
5730;SDS011;2890;51.950;7.668;2022-08-07T12:33:50;0.85;;;0.85;;
5730;SDS011;2890;51.950;7.668;2022-08-07T12:36:19;1.10;;;1.00;;
5730;SDS011;2890;51.950;7.668;2022-08-07T12:38:48;0.90;;;0.90;;
5730;SDS011;2890;51.950;7.668;2022-08-07T12:41:17;2.30;;;1.10;;
5730;SDS011;2890;51.950;7.668;2022-08-07T12:43:45;1.23;;;1.00;;
5730;SDS011;2890;51.950;7.668;2022-08-07T12:46:19;1.00;;;1.00;;
5730;SDS011;2890;51.950;7.668;2022-08-07T12:48:56;0.85;;;0.82;;
5730;SDS011;2890;51.950;7.668;2022-08-07T12:51:36;1.73;;;1.00;;
5730;SDS011;2890;51.950;7.668;2022-08-07T12:54:10;1.25;;;0.98;;
5730;SDS011;2890;51.950;7.668;2022-08-07T12:56:44;3.17;;;1.20;;
5730;SDS011;2890;51.950;7.668;2022-08-07T12:59:15;1.60;;;1.20;;
5730;SDS011;2890;51.950;7.668;2022-08-07T13:01:49;2.17;;;1.70;;
5730;SDS011;2890;51.950;7.668;2022-08-07T13:04:39;4.10;;;1.75;;
5730;SDS011;2890;51.950;7.668;2022-08-07T13:07:19;1.55;;;1.10;;
5730;SDS011;2890;51.950;7.668;2022-08-07T13:10:20;2.55;;;1.58;;
5730;SDS011;2890;51.950;7.668;2022-08-07T13:13:00;1.70;;;1.00;;
5730;SDS011;2890;51.950;7.668;2022-08-07T13:15:41;2.13;;;1.90;;
5730;SDS011;2890;51.950;7.668;2022-08-07T13:18:17;2.90;;;1.67;;
5730;SDS011;2890;51.950;7.668;2022-08-07T13:20:58;4.13;;;1.00;;
5730;SDS011;2890;51.950;7.668;2022-08-07T13:23:34;3.05;;;1.90;;
5730;SDS011;2890;51.950;7.668;2022-08-07T13:26:10;2.53;;;1.30;;
5730;SDS011;2890;51.950;7.668;2022-08-07T13:28:40;1.55;;;1.38;;
5730;SDS011;2890;51.950;7.668;2022-08-07T13:31:11;3.88;;;1.83;;
5730;SDS011;2890;51.950;7.668;2022-08-07T13:33:45;4.07;;;2.88;;
5730;SDS011;2890;51.950;7.668;2022-08-07T13:36:15;4.00;;;3.60;;
5730;SDS011;2890;51.950;7.668;2022-08-07T13:38:48;2.88;;;1.25;;
5730;SDS011;2890;51.950;7.668;2022-08-07T13:41:24;6.05;;;1.65;;
5730;SDS011;2890;51.950;7.668;2022-08-07T13:44:00;1.92;;;1.33;;
5730;SDS011;2890;51.950;7.668;2022-08-07T13:46:29;1.60;;;1.30;;
5730;SDS011;2890;51.950;7.668;2022-08-07T13:48:58;2.40;;;1.30;;
5730;SDS011;2890;51.950;7.668;2022-08-07T13:51:28;2.45;;;1.17;;
5730;SDS011;2890;51.950;7.668;2022-08-07T13:53:58;2.58;;;1.13;;
5730;SDS011;2890;51.950;7.668;2022-08-07T13:56:28;3.30;;;1.92;;
5730;SDS011;2890;51.950;7.668;2022-08-07T13:58:57;1.30;;;1.20;;
5730;SDS011;2890;51.950;7.668;2022-08-07T14:01:28;1.20;;;1.10;;
5730;SDS011;2890;51.950;7.668;2022-08-07T14:03:57;2.15;;;1.13;;
5730;SDS011;2890;51.950;7.668;2022-08-07T14:06:31;1.60;;;1.40;;
5730;SDS011;2890;51.950;7.668;2022-08-07T14:09:01;2.10;;;1.48;;
5730;SDS011;2890;51.950;7.668;2022-08-07T14:11:29;1.48;;;1.13;;
5730;SDS011;2890;51.950;7.668;2022-08-07T14:14:02;2.13;;;1.73;;
5730;SDS011;2890;51.950;7.668;2022-08-07T14:16:33;2.63;;;1.27;;
5730;SDS011;2890;51.950;7.668;2022-08-07T14:19:05;1.25;;;0.90;;
5730;SDS011;2890;51.950;7.668;2022-08-07T14:21:43;2.13;;;1.40;;
5730;SDS011;2890;51.950;7.668;2022-08-07T14:24:14;2.97;;;1.27;;
5730;SDS011;2890;51.950;7.668;2022-08-07T14:26:47;2.28;;;1.10;;
5730;SDS011;2890;51.950;7.668;2022-08-07T14:29:17;1.70;;;1.30;;
5730;SDS011;2890;51.950;7.668;2022-08-07T14:31:47;1.50;;;1.25;;
5730;SDS011;2890;51.950;7.668;2022-08-07T14:34:15;2.47;;;1.50;;
5730;SDS011;2890;51.950;7.668;2022-08-07T14:36:44;0.98;;;0.98;;
5730;SDS011;2890;51.950;7.668;2022-08-07T14:39:13;1.40;;;1.30;;
5730;SDS011;2890;51.950;7.668;2022-08-07T14:41:42;1.27;;;0.93;;
5730;SDS011;2890;51.950;7.668;2022-08-07T14:44:13;0.82;;;0.82;;
5730;SDS011;2890;51.950;7.668;2022-08-07T14:46:42;1.60;;;1.33;;
5730;SDS011;2890;51.950;7.668;2022-08-07T14:49:11;1.33;;;1.05;;
5730;SDS011;2890;51.950;7.668;2022-08-07T14:51:40;1.50;;;1.40;;
5730;SDS011;2890;51.950;7.668;2022-08-07T14:54:09;1.67;;;1.20;;
5730;SDS011;2890;51.950;7.668;2022-08-07T14:56:42;1.08;;;1.05;;
5730;SDS011;2890;51.950;7.668;2022-08-07T14:59:13;0.93;;;0.93;;
5730;SDS011;2890;51.950;7.668;2022-08-07T15:01:45;3.85;;;1.90;;
5730;SDS011;2890;51.950;7.668;2022-08-07T15:04:12;1.20;;;1.10;;
5730;SDS011;2890;51.950;7.668;2022-08-07T15:06:41;1.52;;;1.42;;
5730;SDS011;2890;51.950;7.668;2022-08-07T15:09:11;1.45;;;1.35;;
5730;SDS011;2890;51.950;7.668;2022-08-07T15:11:43;2.28;;;1.45;;
5730;SDS011;2890;51.950;7.668;2022-08-07T15:14:20;1.00;;;1.00;;
5730;SDS011;2890;51.950;7.668;2022-08-07T15:16:51;2.33;;;1.10;;
5730;SDS011;2890;51.950;7.668;2022-08-07T15:19:23;3.70;;;3.28;;
5730;SDS011;2890;51.950;7.668;2022-08-07T15:21:55;2.60;;;2.20;;
5730;SDS011;2890;51.950;7.668;2022-08-07T15:24:24;1.98;;;1.65;;
5730;SDS011;2890;51.950;7.668;2022-08-07T15:26:58;2.10;;;1.63;;
5730;SDS011;2890;51.950;7.668;2022-08-07T15:29:33;1.60;;;1.50;;
5730;SDS011;2890;51.950;7.668;2022-08-07T15:32:02;2.15;;;1.20;;
5730;SDS011;2890;51.950;7.668;2022-08-07T15:34:35;1.83;;;1.50;;
5730;SDS011;2890;51.950;7.668;2022-08-07T15:37:03;2.22;;;1.50;;
5730;SDS011;2890;51.950;7.668;2022-08-07T15:39:34;2.65;;;1.92;;
5730;SDS011;2890;51.950;7.668;2022-08-07T15:42:06;3.38;;;1.60;;
5730;SDS011;2890;51.950;7.668;2022-08-07T15:44:42;2.13;;;1.77;;
5730;SDS011;2890;51.950;7.668;2022-08-07T15:47:13;2.63;;;2.13;;
5730;SDS011;2890;51.950;7.668;2022-08-07T15:49:43;1.50;;;1.40;;
5730;SDS011;2890;51.950;7.668;2022-08-07T15:52:17;1.65;;;1.50;;